sensor_id;sensor_type;location;lat;lon;timestamp;P1;durP1;ratioP1;P2;durP2;ratioP2
16139;SDS011;8175;49.326;12.690;2023-10-19T07:31:07;13.27;;;11.90;;
16139;SDS011;8175;49.326;12.690;2023-10-19T07:33:38;12.33;;;11.03;;
16139;SDS011;8175;49.326;12.690;2023-10-19T07:36:12;11.90;;;10.70;;
16139;SDS011;8175;49.326;12.690;2023-10-19T07:38:40;13.73;;;12.23;;
16139;SDS011;8175;49.326;12.690;2023-10-19T07:41:11;17.13;;;15.17;;
16139;SDS011;8175;49.326;12.690;2023-10-19T07:43:37;31.20;;;24.20;;
16139;SDS011;8175;49.326;12.690;2023-10-19T07:46:02;16.73;;;14.80;;
16139;SDS011;8175;49.326;12.690;2023-10-19T07:48:28;18.93;;;14.63;;
16139;SDS011;8175;49.326;12.690;2023-10-19T07:50:54;18.00;;;14.47;;
16139;SDS011;8175;49.326;12.690;2023-10-19T07:53:19;14.70;;;12.67;;
16139;SDS011;8175;49.326;12.690;2023-10-19T07:55:46;14.77;;;13.30;;
16139;SDS011;8175;49.326;12.690;2023-10-19T07:58:12;14.77;;;13.10;;
16139;SDS011;8175;49.326;12.690;2023-10-19T08:00:38;14.40;;;11.93;;
16139;SDS011;8175;49.326;12.690;2023-10-19T08:03:04;14.47;;;12.40;;
16139;SDS011;8175;49.326;12.690;2023-10-19T08:05:31;17.60;;;14.53;;
16139;SDS011;8175;49.326;12.690;2023-10-19T08:07:58;13.80;;;12.33;;
16139;SDS011;8175;49.326;12.690;2023-10-19T08:10:25;15.50;;;13.70;;
16139;SDS011;8175;49.326;12.690;2023-10-19T08:12:52;24.07;;;18.40;;
16139;SDS011;8175;49.326;12.690;2023-10-19T08:15:18;17.63;;;13.80;;
16139;SDS011;8175;49.326;12.690;2023-10-19T08:17:45;32.93;;;21.90;;
16139;SDS011;8175;49.326;12.690;2023-10-19T08:20:13;16.03;;;13.57;;
16139;SDS011;8175;49.326;12.690;2023-10-19T08:22:51;14.43;;;12.93;;
16139;SDS011;8175;49.326;12.690;2023-10-19T08:25:18;15.67;;;13.43;;
16139;SDS011;8175;49.326;12.690;2023-10-19T08:27:44;15.00;;;13.17;;
16139;SDS011;8175;49.326;12.690;2023-10-19T08:30:13;12.50;;;11.20;;
16139;SDS011;8175;49.326;12.690;2023-10-19T08:32:40;11.07;;;9.90;;
16139;SDS011;8175;49.326;12.690;2023-10-19T08:35:07;11.90;;;10.63;;
16139;SDS011;8175;49.326;12.690;2023-10-19T08:37:39;9.73;;;8.80;;
16139;SDS011;8175;49.326;12.690;2023-10-19T08:40:10;10.30;;;9.30;;
16139;SDS011;8175;49.326;12.690;2023-10-19T08:42:40;16.07;;;13.93;;
16139;SDS011;8175;49.326;12.690;2023-10-19T08:45:07;14.67;;;12.47;;
16139;SDS011;8175;49.326;12.690;2023-10-19T08:47:35;14.23;;;12.33;;
16139;SDS011;8175;49.326;12.690;2023-10-19T08:50:02;12.87;;;11.50;;
16139;SDS011;8175;49.326;12.690;2023-10-19T08:52:30;12.30;;;11.00;;
16139;SDS011;8175;49.326;12.690;2023-10-19T08:54:57;10.40;;;9.30;;
16139;SDS011;8175;49.326;12.690;2023-10-19T08:57:23;10.83;;;9.73;;
16139;SDS011;8175;49.326;12.690;2023-10-19T08:59:49;9.03;;;7.87;;
16139;SDS011;8175;49.326;12.690;2023-10-19T09:02:14;10.57;;;9.47;;
16139;SDS011;8175;49.326;12.690;2023-10-19T09:04:42;10.60;;;9.47;;
16139;SDS011;8175;49.326;12.690;2023-10-19T09:07:10;10.70;;;9.67;;
16139;SDS011;8175;49.326;12.690;2023-10-19T09:09:36;15.20;;;13.40;;
16139;SDS011;8175;49.326;12.690;2023-10-19T09:12:06;12.80;;;11.50;;
16139;SDS011;8175;49.326;12.690;2023-10-19T09:14:36;14.23;;;12.70;;
16139;SDS011;8175;49.326;12.690;2023-10-19T09:17:06;12.27;;;11.07;;
16139;SDS011;8175;49.326;12.690;2023-10-19T09:19:41;11.80;;;10.63;;
16139;SDS011;8175;49.326;12.690;2023-10-19T09:22:09;16.30;;;14.40;;
16139;SDS011;8175;49.326;12.690;2023-10-19T09:24:46;13.67;;;11.70;;
16139;SDS011;8175;49.326;12.690;2023-10-19T09:27:16;11.83;;;9.37;;
16139;SDS011;8175;49.326;12.690;2023-10-19T09:29:42;10.60;;;9.60;;
16139;SDS011;8175;49.326;12.690;2023-10-19T09:32:08;10.37;;;9.40;;
16139;SDS011;8175;49.326;12.690;2023-10-19T09:34:35;11.00;;;9.83;;
16139;SDS011;8175;49.326;12.690;2023-10-19T09:37:01;10.57;;;9.40;;
16139;SDS011;8175;49.326;12.690;2023-10-19T09:39:29;11.47;;;10.27;;
16139;SDS011;8175;49.326;12.690;2023-10-19T09:42:08;8.97;;;8.07;;
16139;SDS011;8175;49.326;12.690;2023-10-19T09:44:45;14.60;;;12.27;;
16139;SDS011;8175;49.326;12.690;2023-10-19T09:50:04;10.13;;;8.53;;
16139;SDS011;8175;49.326;12.690;2023-10-19T09:52:31;11.33;;;10.30;;
16139;SDS011;8175;49.326;12.690;2023-10-19T09:57:49;9.63;;;8.63;;
16139;SDS011;8175;49.326;12.690;2023-10-19T10:00:18;9.53;;;8.63;;
16139;SDS011;8175;49.326;12.690;2023-10-19T10:02:53;10.17;;;9.17;;
16139;SDS011;8175;49.326;12.690;2023-10-19T10:10:43;9.57;;;8.70;;
16139;SDS011;8175;49.326;12.690;2023-10-19T10:15:56;11.23;;;9.57;;
16139;SDS011;8175;49.326;12.690;2023-10-19T10:18:26;10.70;;;9.57;;
16139;SDS011;8175;49.326;12.690;2023-10-19T10:23:43;9.87;;;8.87;;
16139;SDS011;8175;49.326;12.690;2023-10-19T10:26:13;9.70;;;8.63;;
16139;SDS011;8175;49.326;12.690;2023-10-19T10:28:40;10.43;;;9.43;;
16139;SDS011;8175;49.326;12.690;2023-10-19T10:31:11;9.40;;;8.60;;
16139;SDS011;8175;49.326;12.690;2023-10-19T10:33:47;9.80;;;8.80;;
16139;SDS011;8175;49.326;12.690;2023-10-19T10:36:20;10.03;;;9.03;;
16139;SDS011;8175;49.326;12.690;2023-10-19T10:38:46;10.40;;;9.40;;
16139;SDS011;8175;49.326;12.690;2023-10-19T10:41:21;10.43;;;9.07;;
16139;SDS011;8175;49.326;12.690;2023-10-19T10:43:48;9.67;;;8.77;;
16139;SDS011;8175;49.326;12.690;2023-10-19T10:46:23;9.73;;;8.50;;
16139;SDS011;8175;49.326;12.690;2023-10-19T10:48:50;9.63;;;8.73;;
16139;SDS011;8175;49.326;12.690;2023-10-19T10:51:20;9.87;;;8.87;;
16139;SDS011;8175;49.326;12.690;2023-10-19T10:53:48;12.43;;;10.27;;
16139;SDS011;8175;49.326;12.690;2023-10-19T10:56:15;10.57;;;9.40;;
16139;SDS011;8175;49.326;12.690;2023-10-19T10:58:41;11.23;;;9.73;;
16139;SDS011;8175;49.326;12.690;2023-10-19T11:01:07;10.30;;;9.30;;
16139;SDS011;8175;49.326;12.690;2023-10-19T11:03:33;8.83;;;8.03;;
16139;SDS011;8175;49.326;12.690;2023-10-19T11:06:07;11.23;;;10.07;;
16139;SDS011;8175;49.326;12.690;2023-10-19T11:08:34;9.13;;;8.23;;
16139;SDS011;8175;49.326;12.690;2023-10-19T11:11:02;9.60;;;8.63;;
16139;SDS011;8175;49.326;12.690;2023-10-19T11:13:32;9.60;;;8.70;;
16139;SDS011;8175;49.326;12.690;2023-10-19T11:16:02;9.93;;;8.93;;
16139;SDS011;8175;49.326;12.690;2023-10-19T11:18:40;10.17;;;9.17;;
16139;SDS011;8175;49.326;12.690;2023-10-19T11:21:11;9.87;;;8.93;;
16139;SDS011;8175;49.326;12.690;2023-10-19T11:23:43;9.30;;;8.40;;
16139;SDS011;8175;49.326;12.690;2023-10-19T11:26:10;9.20;;;8.17;;
16139;SDS011;8175;49.326;12.690;2023-10-19T11:28:37;8.63;;;7.73;;
16139;SDS011;8175;49.326;12.690;2023-10-19T11:33:42;9.50;;;8.57;;
16139;SDS011;8175;49.326;12.690;2023-10-19T11:36:10;11.30;;;10.07;;
16139;SDS011;8175;49.326;12.690;2023-10-19T11:38:40;9.90;;;8.80;;
16139;SDS011;8175;49.326;12.690;2023-10-19T11:41:10;9.77;;;8.77;;
16139;SDS011;8175;49.326;12.690;2023-10-19T11:43:38;12.07;;;10.83;;
16139;SDS011;8175;49.326;12.690;2023-10-19T11:46:04;11.50;;;10.30;;
16139;SDS011;8175;49.326;12.690;2023-10-19T11:48:31;13.70;;;11.73;;
16139;SDS011;8175;49.326;12.690;2023-10-19T11:50:58;9.90;;;8.90;;
16139;SDS011;8175;49.326;12.690;2023-10-19T11:53:25;10.13;;;8.73;;
16139;SDS011;8175;49.326;12.690;2023-10-19T11:55:51;10.27;;;9.27;;
16139;SDS011;8175;49.326;12.690;2023-10-19T11:58:16;9.37;;;8.50;;
16139;SDS011;8175;49.326;12.690;2023-10-19T12:00:42;10.43;;;8.80;;
16139;SDS011;8175;49.326;12.690;2023-10-19T12:03:11;9.53;;;8.57;;
16139;SDS011;8175;49.326;12.690;2023-10-19T12:05:38;10.93;;;9.37;;
16139;SDS011;8175;49.326;12.690;2023-10-19T12:08:04;10.13;;;9.07;;
16139;SDS011;8175;49.326;12.690;2023-10-19T12:10:31;10.10;;;9.10;;
16139;SDS011;8175;49.326;12.690;2023-10-19T12:13:02;13.70;;;10.27;;
16139;SDS011;8175;49.326;12.690;2023-10-19T12:15:29;12.73;;;10.47;;
16139;SDS011;8175;49.326;12.690;2023-10-19T12:17:55;10.63;;;9.53;;
16139;SDS011;8175;49.326;12.690;2023-10-19T12:20:23;13.27;;;10.03;;
16139;SDS011;8175;49.326;12.690;2023-10-19T12:22:48;9.83;;;8.83;;
16139;SDS011;8175;49.326;12.690;2023-10-19T12:25:18;10.60;;;9.53;;
16139;SDS011;8175;49.326;12.690;2023-10-19T12:27:45;9.10;;;8.20;;
16139;SDS011;8175;49.326;12.690;2023-10-19T12:30:11;8.87;;;8.03;;
16139;SDS011;8175;49.326;12.690;2023-10-19T12:32:47;9.43;;;8.63;;
16139;SDS011;8175;49.326;12.690;2023-10-19T12:35:16;12.63;;;9.10;;
16139;SDS011;8175;49.326;12.690;2023-10-19T12:37:45;25.73;;;17.83;;
16139;SDS011;8175;49.326;12.690;2023-10-19T12:40:17;14.10;;;11.33;;
16139;SDS011;8175;49.326;12.690;2023-10-19T12:42:55;12.13;;;10.57;;
16139;SDS011;8175;49.326;12.690;2023-10-19T12:45:21;8.20;;;7.40;;
16139;SDS011;8175;49.326;12.690;2023-10-19T12:47:47;8.33;;;7.53;;
16139;SDS011;8175;49.326;12.690;2023-10-19T12:50:13;10.33;;;9.33;;
16139;SDS011;8175;49.326;12.690;2023-10-19T12:52:40;9.67;;;8.57;;
16139;SDS011;8175;49.326;12.690;2023-10-19T12:55:06;11.37;;;10.17;;
16139;SDS011;8175;49.326;12.690;2023-10-19T12:57:34;11.70;;;9.50;;
16139;SDS011;8175;49.326;12.690;2023-10-19T13:00:00;18.07;;;15.77;;
16139;SDS011;8175;49.326;12.690;2023-10-19T13:02:48;17.20;;;15.40;;
16139;SDS011;8175;49.326;12.690;2023-10-19T13:05:15;19.43;;;17.33;;
16139;SDS011;8175;49.326;12.690;2023-10-19T13:07:43;12.73;;;11.43;;
16139;SDS011;8175;49.326;12.690;2023-10-19T13:10:09;12.13;;;10.93;;
16139;SDS011;8175;49.326;12.690;2023-10-19T13:12:36;15.00;;;12.73;;
16139;SDS011;8175;49.326;12.690;2023-10-19T13:15:03;12.13;;;10.83;;
16139;SDS011;8175;49.326;12.690;2023-10-19T13:17:32;10.83;;;9.83;;
16139;SDS011;8175;49.326;12.690;2023-10-19T13:20:00;9.90;;;9.00;;
16139;SDS011;8175;49.326;12.690;2023-10-19T13:22:26;16.63;;;9.67;;
16139;SDS011;8175;49.326;12.690;2023-10-19T13:24:52;14.73;;;13.27;;
16139;SDS011;8175;49.326;12.690;2023-10-19T13:27:18;12.70;;;11.00;;
16139;SDS011;8175;49.326;12.690;2023-10-19T13:29:44;13.27;;;11.97;;
16139;SDS011;8175;49.326;12.690;2023-10-19T13:32:12;12.73;;;11.43;;
16139;SDS011;8175;49.326;12.690;2023-10-19T13:34:37;12.30;;;11.00;;
16139;SDS011;8175;49.326;12.690;2023-10-19T13:37:05;11.40;;;9.97;;
16139;SDS011;8175;49.326;12.690;2023-10-19T13:39:33;12.50;;;11.17;;
16139;SDS011;8175;49.326;12.690;2023-10-19T13:41:58;11.77;;;10.57;;
16139;SDS011;8175;49.326;12.690;2023-10-19T13:44:24;11.93;;;10.83;;
16139;SDS011;8175;49.326;12.690;2023-10-19T13:46:51;11.53;;;10.30;;
16139;SDS011;8175;49.326;12.690;2023-10-19T13:49:19;12.47;;;9.67;;
16139;SDS011;8175;49.326;12.690;2023-10-19T13:51:47;10.37;;;9.40;;
16139;SDS011;8175;49.326;12.690;2023-10-19T13:54:13;11.60;;;10.40;;
16139;SDS011;8175;49.326;12.690;2023-10-19T13:56:39;10.20;;;9.10;;
16139;SDS011;8175;49.326;12.690;2023-10-19T13:59:04;11.90;;;9.87;;
16139;SDS011;8175;49.326;12.690;2023-10-19T14:01:30;10.93;;;9.77;;
16139;SDS011;8175;49.326;12.690;2023-10-19T14:03:56;11.13;;;9.23;;
16139;SDS011;8175;49.326;12.690;2023-10-19T14:06:21;10.40;;;9.40;;
16139;SDS011;8175;49.326;12.690;2023-10-19T14:08:49;10.83;;;9.47;;
16139;SDS011;8175;49.326;12.690;2023-10-19T14:11:14;9.90;;;8.97;;
16139;SDS011;8175;49.326;12.690;2023-10-19T14:13:40;11.27;;;9.73;;
16139;SDS011;8175;49.326;12.690;2023-10-19T14:16:08;11.77;;;9.83;;
16139;SDS011;8175;49.326;12.690;2023-10-19T14:18:34;10.63;;;8.57;;
16139;SDS011;8175;49.326;12.690;2023-10-19T14:21:09;10.10;;;8.80;;
16139;SDS011;8175;49.326;12.690;2023-10-19T14:23:39;11.73;;;9.20;;
16139;SDS011;8175;49.326;12.690;2023-10-19T14:26:05;10.33;;;9.27;;
16139;SDS011;8175;49.326;12.690;2023-10-19T14:28:31;8.80;;;7.83;;
16139;SDS011;8175;49.326;12.690;2023-10-19T14:30:57;8.13;;;7.33;;
16139;SDS011;8175;49.326;12.690;2023-10-19T14:33:23;11.10;;;8.50;;
16139;SDS011;8175;49.326;12.690;2023-10-19T14:35:48;8.93;;;8.03;;
16139;SDS011;8175;49.326;12.690;2023-10-19T14:38:14;8.80;;;7.93;;
16139;SDS011;8175;49.326;12.690;2023-10-19T14:40:40;8.60;;;7.80;;
16139;SDS011;8175;49.326;12.690;2023-10-19T14:43:10;8.83;;;7.93;;
16139;SDS011;8175;49.326;12.690;2023-10-19T14:45:36;8.83;;;7.97;;
16139;SDS011;8175;49.326;12.690;2023-10-19T14:48:02;8.80;;;7.97;;
16139;SDS011;8175;49.326;12.690;2023-10-19T14:50:29;9.90;;;8.90;;
16139;SDS011;8175;49.326;12.690;2023-10-19T14:52:55;14.40;;;13.00;;
16139;SDS011;8175;49.326;12.690;2023-10-19T14:55:21;14.43;;;13.03;;
16139;SDS011;8175;49.326;12.690;2023-10-19T14:57:48;11.23;;;10.13;;
16139;SDS011;8175;49.326;12.690;2023-10-19T15:00:17;10.37;;;9.37;;
16139;SDS011;8175;49.326;12.690;2023-10-19T15:02:46;9.90;;;8.83;;
16139;SDS011;8175;49.326;12.690;2023-10-19T15:05:14;8.77;;;7.50;;
16139;SDS011;8175;49.326;12.690;2023-10-19T15:07:45;8.87;;;8.00;;
16139;SDS011;8175;49.326;12.690;2023-10-19T15:10:16;9.63;;;8.57;;
16139;SDS011;8175;49.326;12.690;2023-10-19T15:12:50;9.77;;;8.77;;
16139;SDS011;8175;49.326;12.690;2023-10-19T15:15:16;8.33;;;7.40;;
16139;SDS011;8175;49.326;12.690;2023-10-19T15:17:45;9.07;;;8.17;;
16139;SDS011;8175;49.326;12.690;2023-10-19T15:20:12;7.87;;;7.07;;
16139;SDS011;8175;49.326;12.690;2023-10-19T15:22:42;7.67;;;6.63;;
16139;SDS011;8175;49.326;12.690;2023-10-19T15:25:09;7.93;;;7.13;;
16139;SDS011;8175;49.326;12.690;2023-10-19T15:27:37;7.33;;;6.73;;
16139;SDS011;8175;49.326;12.690;2023-10-19T15:30:04;8.77;;;7.87;;
16139;SDS011;8175;49.326;12.690;2023-10-19T15:32:32;9.20;;;7.77;;
16139;SDS011;8175;49.326;12.690;2023-10-19T15:34:58;7.67;;;6.97;;
16139;SDS011;8175;49.326;12.690;2023-10-19T15:37:24;8.03;;;7.23;;
16139;SDS011;8175;49.326;12.690;2023-10-19T15:39:50;7.93;;;7.13;;
16139;SDS011;8175;49.326;12.690;2023-10-19T15:42:15;9.23;;;7.27;;
16139;SDS011;8175;49.326;12.690;2023-10-19T15:44:43;7.90;;;7.20;;
16139;SDS011;8175;49.326;12.690;2023-10-19T15:47:09;7.87;;;7.17;;
16139;SDS011;8175;49.326;12.690;2023-10-19T15:49:37;7.47;;;6.67;;
16139;SDS011;8175;49.326;12.690;2023-10-19T15:52:12;7.40;;;6.70;;
16139;SDS011;8175;49.326;12.690;2023-10-19T15:54:38;7.00;;;6.30;;
16139;SDS011;8175;49.326;12.690;2023-10-19T15:57:03;9.90;;;8.40;;
16139;SDS011;8175;49.326;12.690;2023-10-19T15:59:30;8.13;;;7.43;;
16139;SDS011;8175;49.326;12.690;2023-10-19T16:01:56;7.70;;;6.90;;
16139;SDS011;8175;49.326;12.690;2023-10-19T16:04:23;7.73;;;6.93;;
16139;SDS011;8175;49.326;12.690;2023-10-19T16:06:48;6.90;;;6.27;;
16139;SDS011;8175;49.326;12.690;2023-10-19T16:09:14;6.57;;;5.90;;
16139;SDS011;8175;49.326;12.690;2023-10-19T16:11:41;7.33;;;6.63;;
16139;SDS011;8175;49.326;12.690;2023-10-19T16:14:07;7.47;;;6.77;;
16139;SDS011;8175;49.326;12.690;2023-10-19T16:16:32;7.13;;;6.43;;
16139;SDS011;8175;49.326;12.690;2023-10-19T16:18:58;9.03;;;7.50;;
16139;SDS011;8175;49.326;12.690;2023-10-19T16:21:23;8.93;;;8.03;;
16139;SDS011;8175;49.326;12.690;2023-10-19T16:23:50;8.67;;;7.87;;
16139;SDS011;8175;49.326;12.690;2023-10-19T16:26:18;7.60;;;6.90;;
16139;SDS011;8175;49.326;12.690;2023-10-19T16:28:44;7.23;;;6.30;;
16139;SDS011;8175;49.326;12.690;2023-10-19T16:31:10;6.30;;;5.70;;
16139;SDS011;8175;49.326;12.690;2023-10-19T16:33:36;7.03;;;6.33;;
16139;SDS011;8175;49.326;12.690;2023-10-19T16:36:03;7.10;;;6.40;;
16139;SDS011;8175;49.326;12.690;2023-10-19T16:38:28;9.33;;;8.40;;
16139;SDS011;8175;49.326;12.690;2023-10-19T16:41:00;9.37;;;8.37;;
16139;SDS011;8175;49.326;12.690;2023-10-19T16:43:26;10.30;;;9.20;;
16139;SDS011;8175;49.326;12.690;2023-10-19T16:45:53;10.40;;;9.30;;
16139;SDS011;8175;49.326;12.690;2023-10-19T16:48:19;11.43;;;10.23;;
16139;SDS011;8175;49.326;12.690;2023-10-19T16:50:45;15.40;;;11.67;;
16139;SDS011;8175;49.326;12.690;2023-10-19T16:53:11;15.20;;;10.90;;
16139;SDS011;8175;49.326;12.690;2023-10-19T16:55:37;14.93;;;12.03;;
16139;SDS011;8175;49.326;12.690;2023-10-19T16:58:03;14.60;;;12.80;;
16139;SDS011;8175;49.326;12.690;2023-10-19T17:00:30;12.47;;;10.47;;
16139;SDS011;8175;49.326;12.690;2023-10-19T17:02:58;9.70;;;8.70;;
16139;SDS011;8175;49.326;12.690;2023-10-19T17:05:24;12.67;;;11.47;;
16139;SDS011;8175;49.326;12.690;2023-10-19T17:07:53;14.93;;;13.33;;
16139;SDS011;8175;49.326;12.690;2023-10-19T17:10:19;13.80;;;11.13;;
16139;SDS011;8175;49.326;12.690;2023-10-19T17:12:44;9.50;;;8.60;;
16139;SDS011;8175;49.326;12.690;2023-10-19T17:15:10;8.47;;;7.20;;
16139;SDS011;8175;49.326;12.690;2023-10-19T17:17:38;9.40;;;8.40;;
16139;SDS011;8175;49.326;12.690;2023-10-19T17:20:04;8.20;;;7.40;;
16139;SDS011;8175;49.326;12.690;2023-10-19T17:22:33;16.43;;;9.57;;
16139;SDS011;8175;49.326;12.690;2023-10-19T17:24:59;11.87;;;10.63;;
16139;SDS011;8175;49.326;12.690;2023-10-19T17:27:25;17.77;;;14.47;;
16139;SDS011;8175;49.326;12.690;2023-10-19T17:29:51;16.03;;;14.23;;
16139;SDS011;8175;49.326;12.690;2023-10-19T17:32:17;14.13;;;12.50;;
16139;SDS011;8175;49.326;12.690;2023-10-19T17:34:42;10.50;;;9.40;;
16139;SDS011;8175;49.326;12.690;2023-10-19T17:37:09;13.17;;;11.43;;
16139;SDS011;8175;49.326;12.690;2023-10-19T17:39:35;12.93;;;11.20;;
16139;SDS011;8175;49.326;12.690;2023-10-19T17:42:01;14.03;;;12.57;;
16139;SDS011;8175;49.326;12.690;2023-10-19T17:44:27;14.70;;;13.13;;
16139;SDS011;8175;49.326;12.690;2023-10-19T17:46:53;20.50;;;16.47;;
16139;SDS011;8175;49.326;12.690;2023-10-19T17:49:18;48.03;;;32.13;;
16139;SDS011;8175;49.326;12.690;2023-10-19T17:51:44;40.43;;;28.47;;
